sensor_id;sensor_type;location;lat;lon;timestamp;temperature;humidity
49821;DHT22;36893;52.520;13.450;2023-03-31T00:04:17;21.70;68.50
49821;DHT22;36893;52.520;13.450;2023-03-31T00:14:19;21.70;68.40
49821;DHT22;36893;52.520;13.450;2023-03-31T00:24:20;21.70;68.40
49821;DHT22;36893;52.520;13.450;2023-03-31T00:34:24;21.70;68.30
49821;DHT22;36893;52.520;13.450;2023-03-31T00:44:28;21.70;68.30
49821;DHT22;36893;52.520;13.450;2023-03-31T00:54:30;21.70;68.20
49821;DHT22;36893;52.520;13.450;2023-03-31T01:04:37;21.70;68.20
49821;DHT22;36893;52.520;13.450;2023-03-31T01:14:39;21.70;68.10
49821;DHT22;36893;52.520;13.450;2023-03-31T01:45:56;21.70;67.90
49821;DHT22;36893;52.520;13.450;2023-03-31T01:56:09;21.70;68.70
49821;DHT22;36893;52.520;13.450;2023-03-31T02:06:16;21.70;67.80
49821;DHT22;36893;52.520;13.450;2023-03-31T02:16:24;21.70;67.60
49821;DHT22;36893;52.520;13.450;2023-03-31T02:26:30;21.60;67.60
49821;DHT22;36893;52.520;13.450;2023-03-31T02:36:43;21.70;67.70
49821;DHT22;36893;52.520;13.450;2023-03-31T02:46:45;21.60;67.50
49821;DHT22;36893;52.520;13.450;2023-03-31T03:07:24;21.60;67.40
49821;DHT22;36893;52.520;13.450;2023-03-31T03:17:47;21.60;67.40
49821;DHT22;36893;52.520;13.450;2023-03-31T03:27:49;21.60;67.40
49821;DHT22;36893;52.520;13.450;2023-03-31T03:37:52;21.60;67.30
49821;DHT22;36893;52.520;13.450;2023-03-31T03:47:52;21.60;67.30
49821;DHT22;36893;52.520;13.450;2023-03-31T03:58:00;21.60;67.30
49821;DHT22;36893;52.520;13.450;2023-03-31T04:08:04;21.60;67.30
49821;DHT22;36893;52.520;13.450;2023-03-31T04:18:05;21.60;67.10
49821;DHT22;36893;52.520;13.450;2023-03-31T04:28:06;21.60;67.10
49821;DHT22;36893;52.520;13.450;2023-03-31T04:38:09;21.60;67.10
49821;DHT22;36893;52.520;13.450;2023-03-31T04:48:10;21.60;67.00
49821;DHT22;36893;52.520;13.450;2023-03-31T04:58:11;21.60;67.00
49821;DHT22;36893;52.520;13.450;2023-03-31T05:08:12;21.60;67.00
49821;DHT22;36893;52.520;13.450;2023-03-31T05:18:12;21.60;67.00
49821;DHT22;36893;52.520;13.450;2023-03-31T05:28:13;21.60;67.00
49821;DHT22;36893;52.520;13.450;2023-03-31T05:38:13;21.60;66.90
49821;DHT22;36893;52.520;13.450;2023-03-31T05:48:15;21.50;66.70
49821;DHT22;36893;52.520;13.450;2023-03-31T05:58:15;21.40;66.60
49821;DHT22;36893;52.520;13.450;2023-03-31T06:08:16;21.40;66.70
49821;DHT22;36893;52.520;13.450;2023-03-31T06:18:17;21.30;66.60
49821;DHT22;36893;52.520;13.450;2023-03-31T06:28:18;21.30;66.60
49821;DHT22;36893;52.520;13.450;2023-03-31T06:38:19;21.20;66.60
49821;DHT22;36893;52.520;13.450;2023-03-31T06:48:22;21.20;66.70
49821;DHT22;36893;52.520;13.450;2023-03-31T06:58:24;21.20;66.70
49821;DHT22;36893;52.520;13.450;2023-03-31T07:08:25;21.10;66.70
49821;DHT22;36893;52.520;13.450;2023-03-31T07:18:26;21.10;66.60
49821;DHT22;36893;52.520;13.450;2023-03-31T07:28:31;21.10;66.60
49821;DHT22;36893;52.520;13.450;2023-03-31T07:38:32;21.10;66.50
49821;DHT22;36893;52.520;13.450;2023-03-31T07:48:33;21.00;66.40
49821;DHT22;36893;52.520;13.450;2023-03-31T07:58:34;21.10;66.40
49821;DHT22;36893;52.520;13.450;2023-03-31T08:08:35;21.10;66.50
49821;DHT22;36893;52.520;13.450;2023-03-31T08:18:37;21.20;66.60
49821;DHT22;36893;52.520;13.450;2023-03-31T08:28:38;21.20;67.50
49821;DHT22;36893;52.520;13.450;2023-03-31T08:38:40;21.20;66.80
49821;DHT22;36893;52.520;13.450;2023-03-31T08:48:49;21.30;67.00
49821;DHT22;36893;52.520;13.450;2023-03-31T08:58:54;21.30;67.10
49821;DHT22;36893;52.520;13.450;2023-03-31T09:08:59;21.40;67.30
49821;DHT22;36893;52.520;13.450;2023-03-31T09:19:01;21.40;67.40
49821;DHT22;36893;52.520;13.450;2023-03-31T09:29:06;21.40;67.40
49821;DHT22;36893;52.520;13.450;2023-03-31T09:39:14;21.50;67.50
49821;DHT22;36893;52.520;13.450;2023-03-31T09:49:22;21.50;67.60
49821;DHT22;36893;52.520;13.450;2023-03-31T09:59:31;21.50;67.60
49821;DHT22;36893;52.520;13.450;2023-03-31T10:09:34;21.50;67.70
49821;DHT22;36893;52.520;13.450;2023-03-31T10:19:37;21.50;67.80
49821;DHT22;36893;52.520;13.450;2023-03-31T10:29:47;21.60;68.00
49821;DHT22;36893;52.520;13.450;2023-03-31T10:40:00;21.60;68.20
49821;DHT22;36893;52.520;13.450;2023-03-31T10:50:15;21.60;68.20
49821;DHT22;36893;52.520;13.450;2023-03-31T11:00:38;21.60;68.30
49821;DHT22;36893;52.520;13.450;2023-03-31T11:11:02;21.60;68.60
49821;DHT22;36893;52.520;13.450;2023-03-31T11:32:27;21.60;69.30
49821;DHT22;36893;52.520;13.450;2023-03-31T11:52:59;21.70;70.00
49821;DHT22;36893;52.520;13.450;2023-03-31T12:03:13;21.70;70.10
49821;DHT22;36893;52.520;13.450;2023-03-31T12:23:44;21.80;70.70
49821;DHT22;36893;52.520;13.450;2023-03-31T12:34:02;21.80;70.90
49821;DHT22;36893;52.520;13.450;2023-03-31T13:04:40;21.80;71.30
49821;DHT22;36893;52.520;13.450;2023-03-31T13:14:43;21.80;71.30
49821;DHT22;36893;52.520;13.450;2023-03-31T13:24:45;21.80;71.50
49821;DHT22;36893;52.520;13.450;2023-03-31T13:34:55;21.80;71.60
49821;DHT22;36893;52.520;13.450;2023-03-31T13:45:37;21.80;71.60
49821;DHT22;36893;52.520;13.450;2023-03-31T13:56:14;21.80;71.80
49821;DHT22;36893;52.520;13.450;2023-03-31T14:06:34;21.70;71.70
49821;DHT22;36893;52.520;13.450;2023-03-31T14:16:39;21.70;71.80
49821;DHT22;36893;52.520;13.450;2023-03-31T14:26:53;21.70;71.80
49821;DHT22;36893;52.520;13.450;2023-03-31T14:37:05;21.70;71.80
49821;DHT22;36893;52.520;13.450;2023-03-31T14:47:20;21.80;71.90
49821;DHT22;36893;52.520;13.450;2023-03-31T14:57:31;21.80;71.80
49821;DHT22;36893;52.520;13.450;2023-03-31T15:07:34;21.80;71.70
49821;DHT22;36893;52.520;13.450;2023-03-31T15:17:38;21.80;71.50
49821;DHT22;36893;52.520;13.450;2023-03-31T15:27:48;21.80;71.30
49821;DHT22;36893;52.520;13.450;2023-03-31T15:37:54;21.80;71.30
49821;DHT22;36893;52.520;13.450;2023-03-31T15:47:55;21.80;71.30
49821;DHT22;36893;52.520;13.450;2023-03-31T15:57:58;21.70;71.10
49821;DHT22;36893;52.520;13.450;2023-03-31T16:08:00;21.70;71.30
49821;DHT22;36893;52.520;13.450;2023-03-31T16:18:06;21.70;71.40
49821;DHT22;36893;52.520;13.450;2023-03-31T16:28:18;21.70;71.50
49821;DHT22;36893;52.520;13.450;2023-03-31T16:38:22;21.80;71.50
49821;DHT22;36893;52.520;13.450;2023-03-31T16:48:26;21.80;71.50
49821;DHT22;36893;52.520;13.450;2023-03-31T16:58:28;21.80;71.50
49821;DHT22;36893;52.520;13.450;2023-03-31T17:08:29;21.70;71.50
49821;DHT22;36893;52.520;13.450;2023-03-31T17:18:30;21.80;71.60
49821;DHT22;36893;52.520;13.450;2023-03-31T17:28:32;21.80;71.70
49821;DHT22;36893;52.520;13.450;2023-03-31T17:38:32;21.70;71.70
49821;DHT22;36893;52.520;13.450;2023-03-31T17:48:33;21.70;71.70
49821;DHT22;36893;52.520;13.450;2023-03-31T17:58:34;21.70;71.80
49821;DHT22;36893;52.520;13.450;2023-03-31T18:08:35;21.70;71.80
49821;DHT22;36893;52.520;13.450;2023-03-31T18:18:36;21.70;71.80
49821;DHT22;36893;52.520;13.450;2023-03-31T18:28:38;21.70;72.00
49821;DHT22;36893;52.520;13.450;2023-03-31T18:38:40;21.70;72.00
49821;DHT22;36893;52.520;13.450;2023-03-31T18:48:40;21.70;72.00
49821;DHT22;36893;52.520;13.450;2023-03-31T18:58:41;21.70;72.10
49821;DHT22;36893;52.520;13.450;2023-03-31T19:08:43;21.80;72.20
49821;DHT22;36893;52.520;13.450;2023-03-31T19:18:43;21.80;72.30
49821;DHT22;36893;52.520;13.450;2023-03-31T19:28:45;21.80;72.30
49821;DHT22;36893;52.520;13.450;2023-03-31T19:38:47;21.80;72.40
49821;DHT22;36893;52.520;13.450;2023-03-31T19:48:47;21.80;72.40
49821;DHT22;36893;52.520;13.450;2023-03-31T19:58:48;21.80;72.50
49821;DHT22;36893;52.520;13.450;2023-03-31T20:08:55;21.80;72.60
49821;DHT22;36893;52.520;13.450;2023-03-31T20:19:02;21.80;72.60
49821;DHT22;36893;52.520;13.450;2023-03-31T20:29:04;21.80;72.60
49821;DHT22;36893;52.520;13.450;2023-03-31T20:39:05;21.80;72.70
49821;DHT22;36893;52.520;13.450;2023-03-31T20:49:07;21.80;72.70
49821;DHT22;36893;52.520;13.450;2023-03-31T20:59:13;21.80;72.70
49821;DHT22;36893;52.520;13.450;2023-03-31T21:09:15;21.80;72.70
49821;DHT22;36893;52.520;13.450;2023-03-31T21:19:16;21.80;72.70
49821;DHT22;36893;52.520;13.450;2023-03-31T21:29:17;21.80;72.70
49821;DHT22;36893;52.520;13.450;2023-03-31T21:39:17;21.80;72.70
49821;DHT22;36893;52.520;13.450;2023-03-31T21:49:18;21.80;72.70
49821;DHT22;36893;52.520;13.450;2023-03-31T21:59:19;21.80;72.60
49821;DHT22;36893;52.520;13.450;2023-03-31T22:09:20;21.80;72.60
49821;DHT22;36893;52.520;13.450;2023-03-31T22:19:20;21.80;72.60
49821;DHT22;36893;52.520;13.450;2023-03-31T22:29:21;21.80;72.50
49821;DHT22;36893;52.520;13.450;2023-03-31T22:39:22;21.80;72.40
49821;DHT22;36893;52.520;13.450;2023-03-31T22:49:23;21.80;72.40
49821;DHT22;36893;52.520;13.450;2023-03-31T22:59:23;21.80;72.40
49821;DHT22;36893;52.520;13.450;2023-03-31T23:09:24;21.80;72.30
49821;DHT22;36893;52.520;13.450;2023-03-31T23:19:25;21.80;72.30
49821;DHT22;36893;52.520;13.450;2023-03-31T23:29:26;21.80;72.30
49821;DHT22;36893;52.520;13.450;2023-03-31T23:39:27;21.70;72.20
49821;DHT22;36893;52.520;13.450;2023-03-31T23:49:27;21.70;72.20
49821;DHT22;36893;52.520;13.450;2023-03-31T23:59:29;21.70;72.20
